createdAt,value
2024-01-15T00:00:38.640Z,22.74
2024-01-15T00:02:38.609Z,19.19
2024-01-15T00:05:38.615Z,18.69
2024-01-15T00:08:38.602Z,18.11
2024-01-15T00:10:38.599Z,17.42
2024-01-15T00:12:38.623Z,17.48
2024-01-15T00:14:38.577Z,18.44
2024-01-15T00:16:38.558Z,16.42
2024-01-15T00:19:38.808Z,15.89
2024-01-15T00:21:38.607Z,15.67
2024-01-15T00:25:38.652Z,14.95
2024-01-15T00:27:38.636Z,14.56
2024-01-15T00:29:38.613Z,13.61
2024-01-15T00:31:38.745Z,12.85
2024-01-15T00:33:38.885Z,12.77
2024-01-15T00:35:38.690Z,13.14
2024-01-15T00:37:38.901Z,11.24
2024-01-15T00:39:38.699Z,12.99
2024-01-15T00:42:38.682Z,12.26
2024-01-15T00:44:38.645Z,12.65
2024-01-15T00:46:38.689Z,12.42
2024-01-15T00:48:38.860Z,11.91
2024-01-15T00:50:38.670Z,12.80
2024-01-15T00:53:38.733Z,11.63
2024-01-15T00:57:38.718Z,11.01
2024-01-15T00:59:38.741Z,11.42
2024-01-15T01:01:38.759Z,11.59
2024-01-15T01:03:42.191Z,11.68
2024-01-15T01:06:38.789Z,12.49
2024-01-15T01:08:38.714Z,14.57
2024-01-15T01:10:38.724Z,14.97
2024-01-15T01:13:38.717Z,15.24
2024-01-15T01:15:38.850Z,16.87
2024-01-15T01:17:38.941Z,18.12
2024-01-15T01:19:39.139Z,18.32
2024-01-15T01:21:38.856Z,20.59
2024-01-15T01:23:38.728Z,20.10
2024-01-15T01:27:38.847Z,19.40
2024-01-15T01:29:38.752Z,19.49
2024-01-15T01:31:38.853Z,18.29
2024-01-15T01:33:38.828Z,17.09
2024-01-15T01:35:38.814Z,18.55
2024-01-15T01:37:38.784Z,17.76
2024-01-15T01:40:42.507Z,19.11
2024-01-15T01:42:38.859Z,19.15
2024-01-15T01:45:38.922Z,18.82
2024-01-15T01:47:38.853Z,18.41
2024-01-15T01:49:39.089Z,18.65
2024-01-15T01:52:38.860Z,18.15
2024-01-15T01:55:38.848Z,17.78
2024-01-15T01:57:38.843Z,17.27
2024-01-15T01:59:38.825Z,18.89
2024-01-15T02:01:38.917Z,18.74
2024-01-15T02:03:38.978Z,18.74
2024-01-15T02:05:38.898Z,18.32
2024-01-15T02:07:38.884Z,20.23
2024-01-15T02:09:38.924Z,18.46
2024-01-15T02:11:38.887Z,18.82
2024-01-15T02:13:38.915Z,18.92
2024-01-15T02:15:38.959Z,19.71
2024-01-15T02:17:42.900Z,18.84
2024-01-15T02:19:38.973Z,21.59
2024-01-15T02:21:38.943Z,21.59
2024-01-15T02:23:38.909Z,20.26
2024-01-15T02:26:38.952Z,21.55
2024-01-15T02:28:38.928Z,22.19
2024-01-15T02:30:39.041Z,21.76
2024-01-15T02:32:38.976Z,21.78
2024-01-15T02:34:39.021Z,21.96
2024-01-15T02:37:38.921Z,23.78
2024-01-15T02:39:39.004Z,22.79
2024-01-15T02:41:38.940Z,24.22
2024-01-15T02:43:38.930Z,24.23
2024-01-15T02:45:39.040Z,27.10
2024-01-15T02:47:38.999Z,28.14
2024-01-15T02:50:38.965Z,24.83
2024-01-15T02:53:38.942Z,25.19
2024-01-15T02:55:38.999Z,26.06
2024-01-15T02:57:39.042Z,24.12
2024-01-15T03:00:39.125Z,24.84
2024-01-15T03:02:39.028Z,28.15
2024-01-15T03:04:39.023Z,25.86
2024-01-15T03:06:39.033Z,25.77
2024-01-15T03:08:39.027Z,25.71
2024-01-15T03:10:39.030Z,22.60
2024-01-15T03:12:39.058Z,22.56
2024-01-15T03:14:38.986Z,25.73
2024-01-15T03:16:39.022Z,23.20
2024-01-15T03:18:39.103Z,22.66
2024-01-15T03:20:39.067Z,25.90
2024-01-15T03:22:39.028Z,26.24
2024-01-15T03:24:39.050Z,23.41
2024-01-15T03:26:39.082Z,24.50
2024-01-15T03:28:39.103Z,25.44
2024-01-15T03:30:39.191Z,24.72
2024-01-15T03:32:39.131Z,24.72
2024-01-15T03:35:39.060Z,23.97
2024-01-15T03:37:39.059Z,23.75
2024-01-15T03:39:39.248Z,24.67
2024-01-15T03:41:39.622Z,21.18
2024-01-15T03:43:39.066Z,21.44
2024-01-15T03:45:39.168Z,20.36
2024-01-15T03:47:39.141Z,20.50
2024-01-15T03:49:39.335Z,21.05
2024-01-15T03:51:39.150Z,22.06
2024-01-15T03:53:39.112Z,21.53
2024-01-15T03:55:39.102Z,24.90
2024-01-15T03:57:39.211Z,21.43
2024-01-15T03:59:39.147Z,19.97
2024-01-15T04:02:39.180Z,21.28
2024-01-15T04:04:39.233Z,19.16
2024-01-15T04:06:39.221Z,19.08
2024-01-15T04:08:44.034Z,18.25
2024-01-15T04:10:39.134Z,20.27
2024-01-15T04:12:39.237Z,17.86
2024-01-15T04:14:39.196Z,19.00
2024-01-15T04:16:39.174Z,19.11
2024-01-15T04:18:39.261Z,19.30
2024-01-15T04:20:39.197Z,18.53
2024-01-15T04:22:39.233Z,18.39
2024-01-15T04:24:39.234Z,18.36
2024-01-15T04:26:39.199Z,18.83
2024-01-15T04:28:39.226Z,19.14
2024-01-15T04:30:39.309Z,16.41
2024-01-15T04:32:39.191Z,17.64
2024-01-15T04:36:39.250Z,16.71
2024-01-15T04:38:39.235Z,18.35
2024-01-15T04:40:39.260Z,18.43
2024-01-15T04:44:39.205Z,16.44
2024-01-15T04:46:39.262Z,18.83
2024-01-15T04:48:39.326Z,19.49
2024-01-15T04:50:39.262Z,19.35
2024-01-15T04:52:39.270Z,18.45
2024-01-15T04:54:39.280Z,18.75
2024-01-15T04:56:39.277Z,17.54
2024-01-15T04:59:39.255Z,17.39
2024-01-15T05:01:39.376Z,18.78
2024-01-15T05:03:39.401Z,17.66
2024-01-15T05:05:39.302Z,17.88
2024-01-15T05:07:39.287Z,17.53
2024-01-15T05:13:39.297Z,16.60
2024-01-15T05:15:39.381Z,15.12
2024-01-15T05:17:39.433Z,15.88
2024-01-15T05:19:40.029Z,14.29
2024-01-15T05:21:39.348Z,14.60
2024-01-15T05:24:39.410Z,13.67
2024-01-15T05:27:39.401Z,11.67
2024-01-15T05:29:39.356Z,12.21
2024-01-15T05:31:39.549Z,13.70
2024-01-15T05:33:39.427Z,14.25
2024-01-15T05:35:39.383Z,13.56
2024-01-15T05:37:39.386Z,13.42
2024-01-15T05:39:39.364Z,13.23
2024-01-15T05:41:39.359Z,13.41
2024-01-15T05:43:39.418Z,12.95
2024-01-15T05:45:39.425Z,12.54
2024-01-15T05:47:39.482Z,12.86
2024-01-15T05:49:39.540Z,11.60
2024-01-15T05:51:39.466Z,13.41
2024-01-15T05:53:39.433Z,12.12
2024-01-15T05:55:39.431Z,13.00
2024-01-15T05:57:39.395Z,12.01
2024-01-15T05:59:39.428Z,12.04
2024-01-15T06:01:39.499Z,12.46
2024-01-15T06:03:39.525Z,11.67
2024-01-15T06:05:39.411Z,11.58
2024-01-15T06:07:39.413Z,12.30
2024-01-15T06:09:39.521Z,13.08
2024-01-15T06:11:39.473Z,12.16
2024-01-15T06:13:39.432Z,11.68
2024-01-15T06:15:39.505Z,13.40
2024-01-15T06:17:39.538Z,12.82
2024-01-15T06:19:39.755Z,13.02
2024-01-15T06:21:39.519Z,11.10
2024-01-15T06:23:39.450Z,12.94
2024-01-15T06:25:39.488Z,11.37
2024-01-15T06:27:39.647Z,11.78
2024-01-15T06:29:39.541Z,10.26
2024-01-15T06:31:39.619Z,11.11
2024-01-15T06:33:41.066Z,11.09
2024-01-15T06:35:39.498Z,10.63
2024-01-15T06:37:39.551Z,11.35
2024-01-15T06:39:39.583Z,11.32
2024-01-15T06:41:39.502Z,11.59
2024-01-15T06:43:39.503Z,11.22
2024-01-15T06:46:39.521Z,12.18
2024-01-15T06:48:39.689Z,11.94
2024-01-15T06:50:39.552Z,12.19
2024-01-15T06:52:39.552Z,10.81
2024-01-15T06:54:39.628Z,10.70
2024-01-15T06:56:39.543Z,11.12
2024-01-15T06:58:39.639Z,10.74
2024-01-15T07:00:39.640Z,12.68
2024-01-15T07:02:39.578Z,10.86
2024-01-15T07:04:42.768Z,9.39
2024-01-15T07:08:39.609Z,9.86
2024-01-15T07:10:41.222Z,9.48
2024-01-15T07:13:39.633Z,8.64
2024-01-15T07:15:39.614Z,9.35
2024-01-15T07:17:39.599Z,8.45
2024-01-15T07:20:39.601Z,8.18
2024-01-15T07:22:39.608Z,8.28
2024-01-15T07:25:39.631Z,8.51
2024-01-15T07:27:39.726Z,8.92
2024-01-15T07:29:39.644Z,8.08
2024-01-15T07:31:39.961Z,8.32
2024-01-15T07:33:39.745Z,7.63
2024-01-15T07:35:39.635Z,8.89
2024-01-15T07:39:39.693Z,7.75
2024-01-15T07:41:39.681Z,9.25
2024-01-15T07:43:39.845Z,8.63
2024-01-15T07:45:41.107Z,9.05
2024-01-15T07:47:41.638Z,8.56
2024-01-15T07:49:39.917Z,9.97
2024-01-15T07:51:39.697Z,10.12
2024-01-15T07:53:39.693Z,10.13
2024-01-15T07:55:39.719Z,10.03
2024-01-15T07:57:39.779Z,8.25
2024-01-15T07:59:39.694Z,8.96
2024-01-15T08:01:39.769Z,8.79
2024-01-15T08:03:39.921Z,8.32
2024-01-15T08:05:39.843Z,9.37
2024-01-15T08:07:39.742Z,8.91
2024-01-15T08:09:39.756Z,8.90
2024-01-15T08:11:39.739Z,8.46
2024-01-15T08:13:39.743Z,8.48
2024-01-15T08:15:39.853Z,8.84
2024-01-15T08:17:39.842Z,9.07
2024-01-15T08:19:39.859Z,8.97
2024-01-15T08:21:39.884Z,8.93
2024-01-15T08:23:39.775Z,8.70
2024-01-15T08:25:39.773Z,8.26
2024-01-15T08:27:39.785Z,8.77
2024-01-15T08:29:39.757Z,8.62
2024-01-15T08:31:40.004Z,8.42
2024-01-15T08:33:39.924Z,7.76
2024-01-15T08:35:39.798Z,7.69
2024-01-15T08:37:39.776Z,8.50
2024-01-15T08:39:40.011Z,7.92
2024-01-15T08:41:39.825Z,7.87
2024-01-15T08:43:39.811Z,8.01
2024-01-15T08:45:39.859Z,8.82
2024-01-15T08:47:39.829Z,8.18
2024-01-15T08:49:39.959Z,7.60
2024-01-15T08:51:39.890Z,7.81
2024-01-15T08:53:39.822Z,7.73
2024-01-15T08:55:39.815Z,6.78
2024-01-15T08:57:39.896Z,6.57
2024-01-15T08:59:39.929Z,6.43
2024-01-15T09:01:42.795Z,6.35
2024-01-15T09:03:39.994Z,5.97
2024-01-15T09:05:40.023Z,5.77
2024-01-15T09:07:39.890Z,6.20
2024-01-15T09:09:39.879Z,6.10
2024-01-15T09:11:39.857Z,5.82
2024-01-15T09:13:39.885Z,5.94
2024-01-15T09:15:39.897Z,5.86
2024-01-15T09:17:39.940Z,5.75
2024-01-15T09:19:39.924Z,5.08
2024-01-15T09:21:39.973Z,6.13
2024-01-15T09:23:39.947Z,6.07
2024-01-15T09:25:39.942Z,5.96
2024-01-15T09:27:39.957Z,6.52
2024-01-15T09:29:39.919Z,5.74
2024-01-15T09:31:40.252Z,5.84
2024-01-15T09:33:39.974Z,6.15
2024-01-15T09:35:39.958Z,5.89
2024-01-15T09:37:45.498Z,5.52
2024-01-15T09:39:39.971Z,5.67
2024-01-15T09:41:39.997Z,6.09
2024-01-15T09:43:39.955Z,6.78
2024-01-15T09:45:39.988Z,6.46
2024-01-15T09:47:42.461Z,6.84
2024-01-15T09:49:40.261Z,6.91
2024-01-15T09:51:40.024Z,6.18
2024-01-15T09:53:39.962Z,6.58
2024-01-15T09:55:39.987Z,7.31
2024-01-15T09:57:39.996Z,5.36
2024-01-15T09:59:40.040Z,5.95
2024-01-15T10:01:40.093Z,6.00
2024-01-15T10:03:40.006Z,6.51
2024-01-15T10:05:40.084Z,6.27
2024-01-15T10:07:40.043Z,6.82
2024-01-15T10:10:40.032Z,6.43
2024-01-15T10:12:40.013Z,6.85
2024-01-15T10:14:40.024Z,6.43
2024-01-15T10:16:40.053Z,6.19
2024-01-15T10:18:40.132Z,5.89
2024-01-15T10:20:40.034Z,4.90
2024-01-15T10:22:40.068Z,5.86
2024-01-15T10:24:40.116Z,6.32
2024-01-15T10:26:40.045Z,5.90
2024-01-15T10:28:40.045Z,5.91
2024-01-15T10:30:40.158Z,6.18
2024-01-15T10:32:40.202Z,6.22
2024-01-15T10:34:40.145Z,6.75
2024-01-15T10:36:40.098Z,6.01
2024-01-15T10:38:40.075Z,6.45
2024-01-15T10:40:40.098Z,6.29
2024-01-15T10:42:40.187Z,6.52
2024-01-15T10:44:40.092Z,6.76
2024-01-15T10:46:40.098Z,7.21
2024-01-15T10:48:40.134Z,5.57
2024-01-15T10:50:40.118Z,6.07
2024-01-15T10:52:43.959Z,6.36
2024-01-15T10:54:40.133Z,6.71
2024-01-15T10:56:40.103Z,6.34
2024-01-15T10:58:40.139Z,6.83
2024-01-15T11:00:40.314Z,6.92
2024-01-15T11:02:40.126Z,6.18
2024-01-15T11:04:40.219Z,6.04
2024-01-15T11:06:40.236Z,6.58
2024-01-15T11:08:40.168Z,6.60
2024-01-15T11:10:40.200Z,6.74
2024-01-15T11:12:40.161Z,6.97
2024-01-15T11:14:40.145Z,6.46
2024-01-15T11:16:40.214Z,6.97
2024-01-15T11:18:42.047Z,7.50
2024-01-15T11:20:40.173Z,6.92
2024-01-15T11:22:40.186Z,6.51
2024-01-15T11:24:40.347Z,7.05
2024-01-15T11:26:40.216Z,7.03
2024-01-15T11:28:40.218Z,6.80
2024-01-15T11:30:40.264Z,6.57
2024-01-15T11:32:40.246Z,6.26
2024-01-15T11:34:40.402Z,5.64
2024-01-15T11:36:40.264Z,6.74
2024-01-15T11:38:40.254Z,6.40
2024-01-15T11:40:40.231Z,6.89
2024-01-15T11:42:40.340Z,6.24
2024-01-15T11:44:40.288Z,6.81
2024-01-15T11:46:40.229Z,6.55
2024-01-15T11:48:40.287Z,6.74
2024-01-15T11:50:40.318Z,7.11
2024-01-15T11:52:40.270Z,6.36
2024-01-15T11:54:40.296Z,6.94
2024-01-15T11:56:40.271Z,6.36
2024-01-15T11:58:40.254Z,5.99
2024-01-15T12:00:40.403Z,5.44
2024-01-15T12:02:40.309Z,6.70
2024-01-15T12:04:40.313Z,5.99
2024-01-15T12:06:45.142Z,6.11
2024-01-15T12:08:40.317Z,6.38
2024-01-15T12:10:40.323Z,7.04
2024-01-15T12:12:40.371Z,6.95
2024-01-15T12:14:40.301Z,6.28
2024-01-15T12:16:40.289Z,6.06
2024-01-15T12:18:40.521Z,6.76
2024-01-15T12:20:40.347Z,6.65
2024-01-15T12:22:53.192Z,6.38
2024-01-15T12:24:40.321Z,7.10
2024-01-15T12:26:40.360Z,6.29
2024-01-15T12:28:40.360Z,7.14
2024-01-15T12:30:40.530Z,6.08
2024-01-15T12:32:40.399Z,10.43
2024-01-15T12:34:40.400Z,6.94
2024-01-15T12:36:40.437Z,7.10
2024-01-15T12:39:40.411Z,8.04
2024-01-15T12:41:40.394Z,7.79
2024-01-15T12:43:45.436Z,7.33
2024-01-15T12:45:40.396Z,7.07
2024-01-15T12:47:40.391Z,6.79
2024-01-15T12:49:40.590Z,6.81
2024-01-15T12:51:40.481Z,7.60
2024-01-15T12:53:40.405Z,7.13
2024-01-15T12:55:40.417Z,6.71
2024-01-15T12:57:40.493Z,6.59
2024-01-15T12:59:40.449Z,7.20
2024-01-15T13:01:40.563Z,7.05
2024-01-15T13:03:40.566Z,7.93
2024-01-15T13:05:40.560Z,6.62
2024-01-15T13:07:40.459Z,7.79
2024-01-15T13:09:40.464Z,7.40
2024-01-15T13:11:40.449Z,8.03
2024-01-15T13:13:40.469Z,7.93
2024-01-15T13:15:40.520Z,8.79
2024-01-15T13:17:40.916Z,8.52
2024-01-15T13:19:40.669Z,8.00
2024-01-15T13:21:40.488Z,8.27
2024-01-15T13:23:40.453Z,7.64
2024-01-15T13:27:41.786Z,7.79
2024-01-15T13:29:40.503Z,9.95
2024-01-15T13:31:40.585Z,8.45
2024-01-15T13:33:42.611Z,8.14
2024-01-15T13:35:40.578Z,7.70
2024-01-15T13:37:40.496Z,8.29
2024-01-15T13:39:40.564Z,7.35
2024-01-15T13:41:40.556Z,7.95
2024-01-15T13:43:40.556Z,7.67
2024-01-15T13:45:40.521Z,8.38
2024-01-15T13:47:40.560Z,7.93
2024-01-15T13:49:40.560Z,8.57
2024-01-15T13:51:40.594Z,9.25
2024-01-15T13:53:40.566Z,8.99
2024-01-15T13:55:40.544Z,10.98
2024-01-15T13:57:40.641Z,12.28
2024-01-15T13:59:40.623Z,12.70
2024-01-15T14:01:40.601Z,12.81
2024-01-15T14:04:40.621Z,13.36
2024-01-15T14:06:40.630Z,14.81
2024-01-15T14:08:40.581Z,14.98
2024-01-15T14:10:40.580Z,14.77
2024-01-15T14:12:40.678Z,16.17
2024-01-15T14:14:40.633Z,15.51
2024-01-15T14:16:40.621Z,15.32
2024-01-15T14:18:40.805Z,15.18
2024-01-15T14:21:40.680Z,17.75
2024-01-15T14:23:40.637Z,16.74
2024-01-15T14:25:40.666Z,17.89
2024-01-15T14:27:40.774Z,16.66
2024-01-15T14:29:40.760Z,17.18
2024-01-15T14:31:41.978Z,16.63
2024-01-15T14:33:40.972Z,16.69
2024-01-15T14:35:40.760Z,17.80
2024-01-15T14:37:40.705Z,18.23
2024-01-15T14:39:40.817Z,16.98
2024-01-15T14:41:40.724Z,18.36
2024-01-15T14:43:40.724Z,18.20
2024-01-15T14:45:40.847Z,17.91
2024-01-15T14:47:40.860Z,18.19
2024-01-15T14:49:40.753Z,17.64
2024-01-15T14:51:40.783Z,18.44
2024-01-15T14:54:40.731Z,18.27
2024-01-15T14:56:40.748Z,18.05
2024-01-15T14:58:40.756Z,17.74
2024-01-15T15:00:40.873Z,18.08
2024-01-15T15:03:40.933Z,21.26
2024-01-15T15:05:40.816Z,24.38
2024-01-15T15:07:40.779Z,19.56
2024-01-15T15:09:40.838Z,19.30
2024-01-15T15:12:40.795Z,18.17
2024-01-15T15:14:48.421Z,18.72
2024-01-15T15:16:40.848Z,18.60
2024-01-15T15:19:40.961Z,19.54
2024-01-15T15:21:40.839Z,20.55
2024-01-15T15:23:40.765Z,18.84
2024-01-15T15:26:40.774Z,19.57
2024-01-15T15:28:40.780Z,17.09
2024-01-15T15:30:40.792Z,17.67
2024-01-15T15:32:40.838Z,16.95
2024-01-15T15:34:40.888Z,16.71
2024-01-15T15:36:40.798Z,16.55
2024-01-15T15:38:40.807Z,15.75
2024-01-15T15:40:40.794Z,15.72
2024-01-15T15:42:40.862Z,14.76
2024-01-15T15:44:40.841Z,14.02
2024-01-15T15:46:40.804Z,13.03
2024-01-15T15:48:40.981Z,13.88
2024-01-15T15:50:40.967Z,12.69
2024-01-15T15:52:40.812Z,12.96
2024-01-15T15:54:40.877Z,12.16
2024-01-15T15:56:41.210Z,11.29
2024-01-15T15:58:40.872Z,12.28
2024-01-15T16:00:40.975Z,10.30
2024-01-15T16:03:40.952Z,11.04
2024-01-15T16:05:49.087Z,10.82
2024-01-15T16:07:40.881Z,11.90
2024-01-15T16:09:41.232Z,12.11
2024-01-15T16:11:40.916Z,10.62
2024-01-15T16:13:40.865Z,10.65
2024-01-15T16:15:40.936Z,9.16
2024-01-15T16:23:21.795Z,10.32
2024-01-15T16:23:32.162Z,10.12
2024-01-15T16:23:43.436Z,9.82
2024-01-15T16:24:50.197Z,9.98
2024-01-15T16:26:41.368Z,9.71
2024-01-15T16:28:40.976Z,9.48
2024-01-15T16:30:45.389Z,9.81
2024-01-15T16:32:40.988Z,9.52
2024-01-15T16:34:40.992Z,8.81
2024-01-15T16:36:41.158Z,8.62
2024-01-15T16:38:40.972Z,8.59
2024-01-15T16:40:40.935Z,8.00
2024-01-15T16:42:40.992Z,8.36
2024-01-15T16:44:41.003Z,8.40
2024-01-15T16:46:40.937Z,8.72
2024-01-15T16:48:41.044Z,9.76
2024-01-15T16:50:41.025Z,8.17
2024-01-15T16:52:41.002Z,8.84
2024-01-15T16:54:40.970Z,9.04
2024-01-15T16:56:41.016Z,8.11
2024-01-15T16:58:41.007Z,8.70
2024-01-15T17:00:41.100Z,8.73
2024-01-15T17:02:41.104Z,8.40
2024-01-15T17:04:41.037Z,7.46
2024-01-15T17:06:41.020Z,7.54
2024-01-15T17:08:41.182Z,6.89
2024-01-15T17:10:41.789Z,8.24
2024-01-15T17:12:41.034Z,7.64
2024-01-15T17:14:41.031Z,8.51
2024-01-15T17:16:41.029Z,7.61
2024-01-15T17:18:41.173Z,8.17
2024-01-15T17:20:41.045Z,7.25
2024-01-15T17:22:41.027Z,6.66
2024-01-15T17:24:41.077Z,7.37
2024-01-15T17:26:41.139Z,7.42
2024-01-15T17:28:41.093Z,6.65
2024-01-15T17:30:41.042Z,6.22
2024-01-15T17:32:41.257Z,7.00
2024-01-15T17:34:41.116Z,7.05
2024-01-15T17:36:43.604Z,5.82
2024-01-15T17:38:41.090Z,7.16
2024-01-15T17:40:41.091Z,6.56
2024-01-15T17:42:41.117Z,6.84
2024-01-15T17:44:41.119Z,6.62
2024-01-15T17:46:41.123Z,6.46
2024-01-15T17:48:41.159Z,5.73
2024-01-15T17:51:41.110Z,7.66
2024-01-15T17:53:41.234Z,7.03
2024-01-15T17:55:41.173Z,5.76
2024-01-15T17:57:41.176Z,5.98
2024-01-15T17:59:41.131Z,6.22
2024-01-15T18:02:41.229Z,6.70
2024-01-15T18:04:41.177Z,6.65
2024-01-15T18:06:41.161Z,6.98
2024-01-15T18:09:41.164Z,6.39
2024-01-15T18:11:41.204Z,6.74
2024-01-15T18:13:44.072Z,6.39
2024-01-15T18:15:41.206Z,6.44
2024-01-15T18:17:41.208Z,6.48
2024-01-15T18:19:41.169Z,7.73
2024-01-15T18:21:41.227Z,6.96
2024-01-15T18:23:41.255Z,7.32
2024-01-15T18:25:41.257Z,7.00
2024-01-15T18:27:41.194Z,7.22
2024-01-15T18:30:41.189Z,6.71
2024-01-15T18:32:41.309Z,8.02
2024-01-15T18:34:41.291Z,7.30
2024-01-15T18:36:41.291Z,6.67
2024-01-15T18:38:41.285Z,7.37
2024-01-15T18:40:41.234Z,7.99
2024-01-15T18:42:41.232Z,7.49
2024-01-15T18:44:41.245Z,7.19
2024-01-15T18:46:41.299Z,8.38
2024-01-15T18:48:41.358Z,7.20
2024-01-15T18:50:44.567Z,7.62
2024-01-15T18:52:41.246Z,7.85
2024-01-15T18:54:41.320Z,7.58
2024-01-15T18:56:41.372Z,7.70
2024-01-15T18:58:41.277Z,7.35
2024-01-15T19:01:41.348Z,8.27
2024-01-15T19:05:41.378Z,8.19
2024-01-15T19:07:41.327Z,6.60
2024-01-15T19:09:41.394Z,6.89
2024-01-15T19:11:41.419Z,7.79
2024-01-15T19:14:41.384Z,7.64
2024-01-15T19:17:41.435Z,7.49
2024-01-15T19:19:41.365Z,7.22
2024-01-15T19:21:41.325Z,7.36
2024-01-15T19:23:41.383Z,8.02
2024-01-15T19:25:41.338Z,8.21
2024-01-15T19:27:44.919Z,8.02
2024-01-15T19:29:41.443Z,8.23
2024-01-15T19:31:41.385Z,8.16
2024-01-15T19:33:43.776Z,7.95
2024-01-15T19:35:41.456Z,8.66
2024-01-15T19:38:41.409Z,8.31
2024-01-15T19:40:41.372Z,8.03
2024-01-15T19:42:41.363Z,8.18
2024-01-15T19:44:41.514Z,8.73
2024-01-15T19:46:41.422Z,8.84
2024-01-15T19:49:41.437Z,8.37
2024-01-15T19:51:41.415Z,8.79
2024-01-15T19:54:41.460Z,10.74
2024-01-15T19:56:41.487Z,10.31
2024-01-15T19:58:41.403Z,8.87
2024-01-15T20:00:41.459Z,8.84
2024-01-15T20:02:41.691Z,8.61
2024-01-15T20:04:45.284Z,8.63
2024-01-15T20:06:41.419Z,8.52
2024-01-15T20:09:41.433Z,8.87
2024-01-15T20:11:41.569Z,9.27
2024-01-15T20:13:41.469Z,9.22
2024-01-15T20:15:41.463Z,8.91
2024-01-15T20:17:41.586Z,9.58
2024-01-15T20:19:41.593Z,9.25
2024-01-15T20:21:41.482Z,8.78
2024-01-15T20:23:50.864Z,9.41
2024-01-15T20:27:41.538Z,9.76
2024-01-15T20:29:41.568Z,8.68
2024-01-15T20:31:41.560Z,9.23
2024-01-15T20:33:41.541Z,9.97
2024-01-15T20:35:41.619Z,10.43
2024-01-15T20:37:41.497Z,9.05
2024-01-15T20:39:41.512Z,8.55
2024-01-15T20:41:45.897Z,8.51
2024-01-15T20:43:41.549Z,8.88
2024-01-15T20:45:41.571Z,9.39
2024-01-15T20:47:41.591Z,9.04
2024-01-15T20:49:41.526Z,14.54
2024-01-15T20:51:41.554Z,19.28
2024-01-15T20:53:41.636Z,10.76
2024-01-15T20:56:41.628Z,9.28
2024-01-15T20:58:41.617Z,8.89
2024-01-15T21:00:41.551Z,9.65
2024-01-15T21:02:41.645Z,10.04
2024-01-15T21:04:41.586Z,10.03
2024-01-15T21:06:41.676Z,9.97
2024-01-15T21:08:41.695Z,9.41
2024-01-15T21:10:41.574Z,9.50
2024-01-15T21:13:41.588Z,9.80
2024-01-15T21:15:41.603Z,9.32
2024-01-15T21:17:41.804Z,9.35
2024-01-15T21:19:41.637Z,9.53
2024-01-15T21:21:41.605Z,10.00
2024-01-15T21:23:41.799Z,10.48
2024-01-15T21:26:41.722Z,9.46
2024-01-15T21:28:41.714Z,9.82
2024-01-15T21:30:41.682Z,9.44
2024-01-15T21:32:41.738Z,10.30
2024-01-15T21:34:41.642Z,10.14
2024-01-15T21:36:41.635Z,9.93
2024-01-15T21:38:41.774Z,10.02
2024-01-15T21:42:41.722Z,9.90
2024-01-15T21:45:41.727Z,9.82
2024-01-15T21:47:41.790Z,10.27
2024-01-15T21:49:41.669Z,10.14
2024-01-15T21:52:41.686Z,10.17
2024-01-15T21:54:41.681Z,9.97
2024-01-15T21:56:41.740Z,9.71
2024-01-15T21:58:41.730Z,10.15
2024-01-15T22:00:41.722Z,9.27
2024-01-15T22:02:42.165Z,9.77
2024-01-15T22:04:41.727Z,10.21
2024-01-15T22:07:41.771Z,10.18
2024-01-15T22:09:41.751Z,10.99
2024-01-15T22:11:44.683Z,9.30
2024-01-15T22:13:41.725Z,10.64
2024-01-15T22:15:41.732Z,10.34
2024-01-15T22:17:41.812Z,10.72
2024-01-15T22:19:41.843Z,10.08
2024-01-15T22:22:41.824Z,9.29
2024-01-15T22:24:41.787Z,10.44
2024-01-15T22:26:41.840Z,9.53
2024-01-15T22:28:41.803Z,9.02
2024-01-15T22:30:41.774Z,9.32
2024-01-15T22:32:41.924Z,9.40
2024-01-15T22:34:41.839Z,9.72
2024-01-15T22:36:41.787Z,10.09
2024-01-15T22:38:41.898Z,10.13
2024-01-15T22:41:41.824Z,9.33
2024-01-15T22:43:41.803Z,9.22
2024-01-15T22:46:41.805Z,10.46
2024-01-15T22:48:41.948Z,10.36
2024-01-15T22:50:41.918Z,10.21
2024-01-15T22:52:41.869Z,9.97
2024-01-15T22:54:41.824Z,9.55
2024-01-15T22:56:41.980Z,10.28
2024-01-15T22:58:41.866Z,10.47
2024-01-15T23:00:41.929Z,9.40
2024-01-15T23:03:41.924Z,10.29
2024-01-15T23:05:41.937Z,11.13
2024-01-15T23:07:41.922Z,9.52
2024-01-15T23:09:41.870Z,10.44
2024-01-15T23:11:41.956Z,9.73
2024-01-15T23:14:41.982Z,9.47
2024-01-15T23:16:43.650Z,11.16
2024-01-15T23:18:42.006Z,10.00
2024-01-15T23:20:41.926Z,10.43
2024-01-15T23:22:41.964Z,10.80
2024-01-15T23:24:41.941Z,9.83
2024-01-15T23:26:41.950Z,10.00
2024-01-15T23:28:41.922Z,11.21
2024-01-15T23:30:41.911Z,10.64
2024-01-15T23:32:42.152Z,10.90
2024-01-15T23:34:41.965Z,10.66
2024-01-15T23:36:41.929Z,9.85
2024-01-15T23:38:42.005Z,9.89
2024-01-15T23:40:41.963Z,10.22
2024-01-15T23:42:41.979Z,11.30
2024-01-15T23:44:42.064Z,11.40
2024-01-15T23:46:41.978Z,10.59
2024-01-15T23:48:42.178Z,10.70
2024-01-15T23:51:42.005Z,10.35
2024-01-15T23:53:42.079Z,10.84
2024-01-15T23:57:42.027Z,11.06
2024-01-15T23:59:42.127Z,10.16
